Time;durP1;ratioP1;P1;durP2;ratioP2;P2;SDS_P1;SDS_P2;PMS_P1;PMS_P2;Temp;Humidity;BMP_temperature;BMP_pressure;BME280_temperature;BME280_humidity;BME280_pressure;Samples;Min_cycle;Max_cycle;Signal;HPM_P1;HPM_P2
2022/05/28 00:01:39;;;;;;;12.33;11.63;;;;;;;12.98;100.00;102634.37;1800894;78;938927;-72
2022/05/28 00:04:09;;;;;;;14.17;13.03;;;;;;;12.90;100.00;102639.55;1790043;78;940839;-73
2022/05/28 00:09:45;;;;;;;13.97;13.00;;;;;;;12.49;100.00;102639.50;1850425;76;86057;-72
2022/05/28 00:12:17;;;;;;;13.53;12.63;;;;;;;12.42;100.00;102639.66;1795320;77;938083;-73
2022/05/28 00:14:47;;;;;;;13.60;12.80;;;;;;;12.78;100.00;102634.09;1775384;77;938937;-73
2022/05/28 00:17:17;;;;;;;12.70;12.03;;;;;;;12.57;100.00;102641.31;1779222;77;940155;-72
2022/05/28 00:19:48;;;;;;;11.87;11.13;;;;;;;12.75;100.00;102631.79;1784584;78;938895;-72
2022/05/28 00:25:26;;;;;;;12.93;12.03;;;;;;;13.11;100.00;102622.86;1941263;72;86440;-73
2022/05/28 00:27:57;;;;;;;12.33;11.70;;;;;;;12.92;100.00;102634.57;1853948;73;938047;-74
2022/05/28 00:30:27;;;;;;;13.77;12.70;;;;;;;12.57;100.00;102641.85;1868399;75;940703;-73
2022/05/28 00:32:57;;;;;;;13.78;13.03;;;;;;;12.51;100.00;102635.89;1857154;75;941001;-73
2022/05/28 00:35:28;;;;;;;13.67;12.57;;;;;;;12.47;100.00;102636.11;1813020;74;940048;-72
2022/05/28 00:37:58;;;;;;;15.33;14.23;;;;;;;12.62;100.00;102642.75;1795109;77;939740;-72
2022/05/28 00:40:29;;;;;;;13.53;12.80;;;;;;;12.38;100.00;102645.98;1823358;77;940747;-74
2022/05/28 00:43:04;;;;;;;14.70;13.90;;;;;;;12.36;100.00;102644.87;1836462;75;940820;-72
2022/05/28 00:45:35;;;;;;;13.30;12.50;;;;;;;12.24;100.00;102643.53;1855256;75;939215;-73
2022/05/28 00:48:07;;;;;;;13.10;12.18;;;;;;;12.73;100.00;102633.46;1798281;77;940976;-74
2022/05/28 00:50:39;;;;;;;13.47;12.60;;;;;;;12.67;100.00;102629.44;1809480;75;938800;-74
2022/05/28 00:53:09;;;;;;;15.00;13.97;;;;;;;12.52;100.00;102638.98;1847383;75;939917;-73
2022/05/28 00:55:40;;;;;;;15.70;14.80;;;;;;;12.20;100.00;102640.95;1843492;73;939148;-73
2022/05/28 01:01:19;;;;;;;14.80;13.90;;;;;;;12.43;100.00;102642.74;1908862;74;86200;-73
2022/05/28 01:07:05;;;;;;;13.87;12.87;;;;;;;12.68;100.00;102639.50;1965363;69;39775;-73
2022/05/28 01:09:39;;;;;;;14.57;13.37;;;;;;;12.73;100.00;102639.04;1896708;74;936776;-74
2022/05/28 01:12:13;;;;;;;15.40;14.30;;;;;;;12.69;100.00;102635.08;1875866;73;940761;-74
2022/05/28 01:14:49;;;;;;;14.93;14.00;;;;;;;12.54;100.00;102647.37;1898545;74;938852;-74
2022/05/28 01:17:22;;;;;;;16.03;14.73;;;;;;;12.44;100.00;102640.27;1883871;74;939735;-73
2022/05/28 01:19:58;;;;;;;16.23;15.00;;;;;;;12.46;100.00;102644.16;1885585;74;941088;-74
2022/05/28 01:22:41;;;;;;;16.20;15.00;;;;;;;12.36;100.00;102645.41;1891008;74;940786;-74
2022/05/28 01:25:17;;;;;;;15.60;14.40;;;;;;;12.46;100.00;102640.83;1868717;73;939988;-73
2022/05/28 01:27:51;;;;;;;16.03;15.13;;;;;;;12.57;100.00;102643.25;1870972;73;939079;-74
2022/05/28 01:33:28;;;;;;;15.13;14.07;;;;;;;12.64;100.00;102634.14;1897198;72;86371;-73
2022/05/28 01:35:59;;;;;;;14.25;13.45;;;;;;;12.57;100.00;102642.70;1799549;75;938947;-72
2022/05/28 01:38:30;;;;;;;15.80;14.63;;;;;;;12.62;100.00;102647.52;1827729;75;941241;-72
2022/05/28 01:41:02;;;;;;;15.98;14.73;;;;;;;12.49;100.00;102643.13;1862070;73;941357;-73
2022/05/28 01:43:34;;;;;;;15.40;14.30;;;;;;;12.49;100.00;102642.28;1875625;74;940077;-72
2022/05/28 01:46:04;;;;;;;15.10;14.30;;;;;;;12.54;100.00;102637.61;1862117;74;940025;-73
2022/05/28 01:48:36;;;;;;;15.80;14.73;;;;;;;12.56;100.00;102640.16;1872377;75;938974;-73
2022/05/28 01:51:07;;;;;;;17.32;16.20;;;;;;;12.60;100.00;102639.39;1859684;73;940834;-73
2022/05/28 01:59:49;;;;;;;19.53;18.13;;;;;;;12.19;100.00;102627.30;1853677;76;86391;-73
2022/05/28 02:02:20;;;;;;;19.93;18.63;;;;;;;12.01;100.00;102634.50;1802573;77;939010;-72
2022/05/28 02:04:51;;;;;;;18.90;17.60;;;;;;;12.05;100.00;102620.36;1794730;77;940987;-73
2022/05/28 02:10:27;;;;;;;18.20;17.10;;;;;;;12.30;100.00;102613.27;1882297;74;85400;-74
2022/05/28 02:16:12;;;;;;;20.97;19.70;;;;;;;11.82;100.00;102617.16;1973153;69;39643;-74
2022/05/28 02:21:53;;;;;;;22.90;21.43;;;;;;;12.02;100.00;102614.76;1836158;77;86652;-73
2022/05/28 02:27:32;;;;;;;24.47;22.73;;;;;;;11.29;100.00;102604.44;1898073;74;86553;-74
2022/05/28 02:30:03;;;;;;;23.87;22.50;;;;;;;11.31;100.00;102607.80;1772055;77;939015;-73
2022/05/28 02:35:39;;;;;;;24.60;23.10;;;;;;;11.22;100.00;102602.87;1891141;74;86132;-75
2022/05/28 02:38:09;;;;;;;24.33;22.63;;;;;;;11.13;100.00;102609.36;1783507;76;938812;-74
2022/05/28 02:40:42;;;;;;;23.87;22.47;;;;;;;11.32;100.00;102610.05;1804651;77;938283;-74
2022/05/28 02:43:12;;;;;;;24.00;22.50;;;;;;;11.41;100.00;102605.78;1792445;77;940119;-73
2022/05/28 02:45:43;;;;;;;24.10;22.50;;;;;;;11.38;100.00;102598.75;1816802;77;938885;-74
2022/05/28 02:48:13;;;;;;;23.63;22.37;;;;;;;11.48;100.00;102606.46;1797258;76;940979;-74
2022/05/28 02:50:44;;;;;;;24.17;22.70;;;;;;;11.41;100.00;102590.47;1794113;76;938146;-75
2022/05/28 02:53:14;;;;;;;25.50;23.43;;;;;;;11.36;100.00;102594.00;1801770;76;940925;-74
2022/05/28 02:55:44;;;;;;;25.07;23.57;;;;;;;11.28;100.00;102589.37;1838074;77;938036;-74
2022/05/28 02:58:15;;;;;;;26.25;24.65;;;;;;;11.30;100.00;102582.45;1817923;76;939972;-74
2022/05/28 03:00:45;;;;;;;27.00;25.40;;;;;;;10.99;100.00;102587.66;1780999;78;939044;-75
2022/05/28 03:03:19;;;;;;;27.67;25.90;;;;;;;10.86;100.00;102588.78;1794908;77;940958;-74
2022/05/28 03:05:48;;;;;;;28.43;26.83;;;;;;;10.85;100.00;102593.48;1827280;76;938780;-74
2022/05/28 03:11:24;;;;;;;27.93;26.03;;;;;;;11.34;100.00;102587.82;1941771;73;86300;-74
2022/05/28 03:13:55;;;;;;;33.10;31.30;;;;;;;11.09;100.00;102600.37;1870317;74;937953;-73
2022/05/28 03:16:25;;;;;;;43.43;41.17;;;;;;;10.77;100.00;102604.14;1807787;77;940776;-73
2022/05/28 03:18:55;;;;;;;41.60;39.00;;;;;;;10.52;100.00;102604.95;1810710;76;948802;-73
2022/05/28 03:21:25;;;;;;;39.10;36.70;;;;;;;10.95;100.00;102602.60;1872827;74;939980;-73
2022/05/28 03:23:55;;;;;;;42.83;40.43;;;;;;;10.92;100.00;102600.29;1863345;74;939955;-73
2022/05/28 03:26:28;;;;;;;42.53;40.03;;;;;;;10.99;100.00;102594.61;1872486;75;940896;-73
2022/05/28 03:28:59;;;;;;;50.90;48.17;;;;;;;11.11;100.00;102596.80;1860585;74;939699;-73
2022/05/28 03:31:30;;;;;;;56.60;53.60;;;;;;;10.35;100.00;102604.83;1877788;74;940729;-73
2022/05/28 03:34:01;;;;;;;53.80;50.90;;;;;;;10.45;100.00;102607.30;1865491;74;940872;-74
2022/05/28 03:36:32;;;;;;;50.60;47.90;;;;;;;11.05;100.00;102593.61;1877748;74;940671;-73
2022/05/28 03:39:02;;;;;;;49.13;46.53;;;;;;;11.18;100.00;102598.35;1861099;74;939931;-74
2022/05/28 03:41:33;;;;;;;49.80;47.03;;;;;;;11.24;100.00;102595.98;1874893;74;940827;-73
2022/05/28 03:44:03;;;;;;;49.08;46.20;;;;;;;11.28;100.00;102592.16;1868781;74;940872;-74
2022/05/28 03:46:36;;;;;;;50.92;48.02;;;;;;;11.15;100.00;102591.05;1877806;74;938922;-73
2022/05/28 03:49:09;;;;;;;51.63;48.65;;;;;;;11.08;100.00;102591.17;1865372;74;940738;-73
2022/05/28 03:51:40;;;;;;;52.83;49.73;;;;;;;10.99;100.00;102601.02;1877508;74;938680;-74
2022/05/28 03:54:10;;;;;;;53.57;50.27;;;;;;;10.89;100.00;102604.42;1865443;74;940036;-73
2022/05/28 03:56:43;;;;;;;55.53;52.37;;;;;;;10.74;100.00;102605.45;1876936;74;939053;-73
2022/05/28 03:59:13;;;;;;;55.57;52.27;;;;;;;10.67;100.00;102613.08;1874672;75;940811;-73
2022/05/28 04:01:44;;;;;;;54.97;51.87;;;;;;;10.79;100.00;102608.89;1846818;74;938668;-73
2022/05/28 04:04:14;;;;;;;56.60;53.50;;;;;;;10.59;100.00;102609.29;1805502;76;939827;-74
2022/05/28 04:09:50;;;;;;;59.17;55.67;;;;;;;10.87;100.00;102605.19;1887764;74;86462;-74
2022/05/28 04:12:20;;;;;;;58.57;55.17;;;;;;;10.83;100.00;102601.21;1843019;76;938973;-74
2022/05/28 04:14:51;;;;;;;57.63;54.47;;;;;;;10.85;100.00;102600.44;1826178;76;939735;-74
2022/05/28 04:17:21;;;;;;;56.37;53.23;;;;;;;10.70;100.00;102600.63;1835005;75;941055;-75
2022/05/28 04:19:51;;;;;;;58.17;54.97;;;;;;;10.77;100.00;102609.16;1817629;75;940935;-74
2022/05/28 04:22:21;;;;;;;59.77;56.37;;;;;;;10.79;100.00;102608.89;1831302;77;939594;-74
2022/05/28 04:24:51;;;;;;;59.10;55.90;;;;;;;10.82;100.00;102613.98;1824573;76;939988;-74
2022/05/28 04:27:21;;;;;;;60.07;56.80;;;;;;;10.77;100.00;102612.48;1835954;76;940918;-75
2022/05/28 04:29:52;;;;;;;58.63;55.43;;;;;;;10.85;100.00;102614.88;1829185;76;941090;-75
2022/05/28 04:32:22;;;;;;;59.20;55.87;;;;;;;10.71;100.00;102615.67;1841220;77;940723;-75
2022/05/28 04:34:52;;;;;;;59.63;56.23;;;;;;;10.72;100.00;102617.38;1829300;76;941030;-75
2022/05/28 04:37:22;;;;;;;61.10;57.70;;;;;;;10.56;100.00;102611.71;1841406;76;940830;-74
2022/05/28 04:39:53;;;;;;;60.30;57.00;;;;;;;10.73;100.00;102612.66;1829235;76;940906;-74
2022/05/28 04:42:23;;;;;;;60.10;56.57;;;;;;;10.81;100.00;102612.28;1841273;76;940769;-73
2022/05/28 04:44:56;;;;;;;62.43;59.05;;;;;;;10.80;100.00;102614.76;1829027;76;940804;-75
2022/05/28 04:47:25;;;;;;;62.80;59.10;;;;;;;10.68;100.00;102619.49;1807342;74;939880;-75
2022/05/28 04:49:55;;;;;;;62.43;58.83;;;;;;;10.63;100.00;102615.20;1804955;76;950673;-74
2022/05/28 04:52:25;;;;;;;62.90;59.40;;;;;;;10.56;100.00;102619.51;1825479;75;940741;-74
2022/05/28 04:54:55;;;;;;;65.62;61.73;;;;;;;10.60;100.00;102613.77;1785566;78;943713;-74
2022/05/28 04:57:26;;;;;;;64.60;60.83;;;;;;;10.53;100.00;102615.80;1862085;74;941036;-75
2022/05/28 04:59:56;;;;;;;66.47;62.43;;;;;;;10.75;100.00;102618.27;1850072;75;942137;-74
2022/05/28 05:02:26;;;;;;;63.57;59.87;;;;;;;10.75;100.00;102618.27;1847234;76;940245;-74
2022/05/28 05:04:58;;;;;;;64.27;60.47;;;;;;;10.70;100.00;102620.92;1837674;76;939845;-74
2022/05/28 05:10:34;;;;;;;65.93;62.03;;;;;;;10.88;100.00;102605.50;1823679;78;86601;-74
2022/05/28 05:13:05;;;;;;;66.37;62.20;;;;;;;10.85;100.00;102611.56;1783624;78;938820;-74
2022/05/28 05:15:35;;;;;;;66.70;62.70;;;;;;;10.63;100.00;102624.92;1786830;78;938850;-74
2022/05/28 05:18:06;;;;;;;67.75;63.60;;;;;;;10.81;100.00;102622.02;1775401;79;941116;-74
2022/05/28 05:20:37;;;;;;;66.60;62.57;;;;;;;10.93;100.00;102611.72;1787566;79;938893;-74
2022/05/28 05:23:07;;;;;;;64.83;60.63;;;;;;;11.11;100.00;102614.89;1775830;79;940760;-74
2022/05/28 05:25:37;;;;;;;66.77;62.73;;;;;;;11.20;100.00;102614.27;1787570;78;939085;-74
2022/05/28 05:28:08;;;;;;;65.20;61.37;;;;;;;11.26;100.00;102615.19;1775814;79;941041;-74
2022/05/28 05:30:39;;;;;;;66.30;62.23;;;;;;;11.27;100.00;102616.89;1787502;78;939117;-74
2022/05/28 05:33:09;;;;;;;64.57;60.73;;;;;;;11.25;100.00;102618.52;1775783;79;941047;-74
2022/05/28 05:35:40;;;;;;;65.77;61.67;;;;;;;11.35;100.00;102619.28;1787679;79;938838;-74
2022/05/28 05:38:11;;;;;;;64.63;60.57;;;;;;;11.32;100.00;102619.23;1775726;79;940841;-73
2022/05/28 05:40:41;;;;;;;65.53;61.57;;;;;;;11.38;100.00;102618.23;1787453;79;939003;-74
2022/05/28 05:43:11;;;;;;;62.97;59.13;;;;;;;11.40;100.00;102617.99;1775633;79;940897;-74
2022/05/28 05:45:41;;;;;;;66.13;62.17;;;;;;;11.39;100.00;102617.14;1787537;79;938952;-74
2022/05/28 05:48:12;;;;;;;65.10;61.03;;;;;;;11.45;100.00;102619.49;1775757;78;941012;-74
2022/05/28 05:50:42;;;;;;;64.73;60.60;;;;;;;11.51;100.00;102612.91;1787515;78;938946;-74
2022/05/28 05:53:12;;;;;;;64.63;60.73;;;;;;;11.49;100.00;102612.34;1775911;78;940824;-74
2022/05/28 05:55:43;;;;;;;65.97;61.83;;;;;;;11.55;100.00;102605.75;1787705;79;939154;-74
2022/05/28 05:58:13;;;;;;;67.47;63.30;;;;;;;11.65;100.00;102607.89;1787461;79;940848;-74
2022/05/28 06:00:43;;;;;;;67.60;63.50;;;;;;;11.59;100.00;102609.76;1787571;78;938895;-74
2022/05/28 06:03:18;;;;;;;66.43;62.27;;;;;;;11.68;100.00;102608.81;1787662;79;940968;-74
2022/05/28 06:05:49;;;;;;;67.90;63.90;;;;;;;11.62;100.00;102602.84;1775747;79;941024;-74
2022/05/28 06:11:26;;;;;;;66.53;62.27;;;;;;;11.77;100.00;102608.70;1932039;73;86796;-73
2022/05/28 06:13:56;;;;;;;68.33;63.93;;;;;;;11.77;100.00;102609.55;1855623;74;938791;-73
2022/05/28 06:16:26;;;;;;;68.42;64.15;;;;;;;11.69;100.00;102603.52;1867569;75;940917;-73
2022/05/28 06:18:57;;;;;;;69.37;65.32;;;;;;;11.76;100.00;102600.08;1855546;74;940793;-73
2022/05/28 06:21:28;;;;;;;68.83;64.60;;;;;;;11.86;100.00;102603.03;1867440;75;940804;-73
2022/05/28 06:23:59;;;;;;;67.78;63.13;;;;;;;11.89;100.00;102609.51;1856521;75;940722;-71
2022/05/28 06:26:30;;;;;;;65.83;61.83;;;;;;;11.94;100.00;102612.94;1867506;74;941096;-71
2022/05/28 06:29:00;;;;;;;66.28;62.23;;;;;;;12.13;100.00;102611.59;1854946;74;940288;-72
2022/05/28 06:31:31;;;;;;;65.17;60.83;;;;;;;12.18;100.00;102602.77;1866958;74;940810;-72
2022/05/28 06:34:01;;;;;;;65.83;61.83;;;;;;;12.71;100.00;102596.61;1854333;74;951195;-72
2022/05/28 06:36:31;;;;;;;66.37;62.10;;;;;;;12.21;100.00;102601.41;1868644;75;941001;-71
2022/05/28 06:39:02;;;;;;;62.33;58.73;;;;;;;12.24;100.00;102607.31;1856380;75;940744;-70
2022/05/28 06:41:32;;;;;;;64.07;60.43;;;;;;;12.37;100.00;102594.97;1868653;71;940977;-70
2022/05/28 06:44:02;;;;;;;63.45;59.93;;;;;;;12.58;100.00;102595.58;1854263;74;941137;-71
2022/05/28 06:46:32;;;;;;;62.27;58.80;;;;;;;12.56;100.00;102591.38;1867885;74;940941;-72
2022/05/28 06:49:02;;;;;;;67.43;63.40;;;;;;;12.51;100.00;102591.29;1856345;75;940937;-72
2022/05/28 06:51:33;;;;;;;64.50;61.00;;;;;;;12.47;100.00;102594.30;1868197;71;941030;-71
2022/05/28 06:54:03;;;;;;;64.83;61.10;;;;;;;12.50;100.00;102589.05;1855998;74;940095;-72
2022/05/28 06:56:33;;;;;;;61.53;57.93;;;;;;;12.60;100.00;102594.78;1868143;74;938809;-71
2022/05/28 06:59:04;;;;;;;60.07;56.67;;;;;;;12.63;100.00;102595.66;1855922;75;940719;-72
2022/05/28 07:01:34;;;;;;;63.80;60.13;;;;;;;12.71;100.00;102591.58;1868617;75;938912;-71
2022/05/28 07:04:05;;;;;;;59.87;56.53;;;;;;;12.69;100.00;102600.22;1854869;74;951345;-71
2022/05/28 07:09:41;;;;;;;57.10;53.83;;;;;;;12.99;100.00;102584.45;1848935;76;86572;-72
2022/05/28 07:12:11;;;;;;;56.40;53.40;;;;;;;12.99;100.00;102591.98;1787640;78;938844;-73
2022/05/28 07:14:42;;;;;;;53.83;50.93;;;;;;;13.06;100.00;102592.61;1786393;78;938897;-72
2022/05/28 07:17:12;;;;;;;55.03;52.10;;;;;;;13.08;100.00;102582.05;1787604;78;940899;-73
2022/05/28 07:19:42;;;;;;;52.10;49.20;;;;;;;13.16;100.00;102587.20;1767757;79;939081;-72
2022/05/28 07:22:13;;;;;;;53.90;50.80;;;;;;;13.20;100.00;102589.77;1802640;77;940120;-73
2022/05/28 07:24:43;;;;;;;56.17;53.03;;;;;;;13.20;100.00;102589.22;1818343;76;938904;-72
2022/05/28 07:27:14;;;;;;;56.73;53.63;;;;;;;13.32;100.00;102593.25;1826954;77;940992;-72
2022/05/28 07:29:44;;;;;;;51.90;49.00;;;;;;;13.45;100.00;102586.42;1812149;77;938898;-72
2022/05/28 07:32:15;;;;;;;49.07;46.23;;;;;;;13.63;100.00;102587.46;1829092;76;940884;-73
2022/05/28 07:34:45;;;;;;;44.70;42.00;;;;;;;13.77;100.00;102590.68;1807401;77;939040;-73
2022/05/28 07:37:15;;;;;;;40.53;38.10;;;;;;;13.80;100.00;102594.33;1826365;76;941050;-73
2022/05/28 07:39:45;;;;;;;37.97;35.87;;;;;;;13.87;100.00;102583.77;1780274;78;938946;-73
2022/05/28 07:42:16;;;;;;;36.67;34.67;;;;;;;14.30;100.00;102587.78;1814370;77;940917;-71
2022/05/28 07:44:46;;;;;;;33.37;31.10;;;;;;;14.27;100.00;102586.93;1822579;77;938935;-72
2022/05/28 07:47:18;;;;;;;34.93;32.83;;;;;;;14.42;100.00;102580.62;1802078;77;940887;-73
2022/05/28 07:52:55;;;;;;;31.57;29.67;;;;;;;15.02;100.00;102571.73;1985991;69;39572;-72
2022/05/28 07:55:26;;;;;;;29.23;27.33;;;;;;;15.06;100.00;102577.07;1925779;73;938725;-71
2022/05/28 07:57:57;;;;;;;31.37;29.63;;;;;;;14.99;100.00;102582.09;1869964;74;939743;-72
2022/05/28 08:00:27;;;;;;;27.50;25.93;;;;;;;14.90;100.00;102571.97;1882053;74;940870;-71
2022/05/28 08:02:58;;;;;;;26.17;24.67;;;;;;;15.10;100.00;102573.19;1874130;75;940688;-71
2022/05/28 08:05:29;;;;;;;25.53;24.13;;;;;;;15.54;100.00;102573.63;1922138;73;939708;-72
2022/05/28 08:11:05;;;;;;;23.00;21.33;;;;;;;15.65;100.00;102563.58;1986993;69;39517;-70
2022/05/28 08:13:35;;;;;;;22.57;21.10;;;;;;;15.67;100.00;102570.29;1925849;73;937190;-71
2022/05/28 08:16:07;;;;;;;20.70;19.60;;;;;;;15.73;100.00;102564.98;1913210;73;946525;-71
2022/05/28 08:18:39;;;;;;;21.33;20.13;;;;;;;15.86;100.00;102561.09;1873640;75;938944;-72
2022/05/28 08:23:58;;;;;;;18.03;16.93;;;;;;;15.79;100.00;102554.05;1853329;75;940709;-71
2022/05/28 08:26:29;;;;;;;16.67;15.50;;;;;;;16.27;100.00;102551.24;1915467;72;940854;-71
2022/05/28 08:28:59;;;;;;;15.98;14.87;;;;;;;16.32;100.00;102547.04;1900386;73;940857;-70
2022/05/28 08:31:30;;;;;;;15.57;14.60;;;;;;;16.26;100.00;102550.41;1896528;75;940744;-72
2022/05/28 08:34:01;;;;;;;14.40;13.55;;;;;;;16.42;100.00;102553.20;1874904;74;940904;-71
2022/05/28 08:36:31;;;;;;;14.27;13.20;;;;;;;16.87;100.00;102550.30;1869896;75;940941;-71
2022/05/28 08:39:01;;;;;;;15.28;14.13;;;;;;;16.86;100.00;102545.80;1837394;73;940924;-71
2022/05/28 08:41:37;;;;;;;15.13;14.13;;;;;;;16.30;100.00;102553.51;1931247;73;940825;-72
2022/05/28 08:47:21;;;;;;;14.13;13.23;;;;;;;16.67;100.00;102546.16;1891458;75;86431;-72
2022/05/28 08:49:54;;;;;;;13.80;13.03;;;;;;;16.60;100.00;102548.44;1783880;76;938820;-72
2022/05/28 08:55:35;;;;;;;13.63;12.60;;;;;;;17.18;100.00;102540.62;1890636;75;86541;-73
2022/05/28 08:58:09;;;;;;;12.00;11.23;;;;;;;16.90;100.00;102538.48;1824970;76;938667;-73
2022/05/28 09:00:43;;;;;;;12.50;11.70;;;;;;;16.91;100.00;102542.13;1841259;75;938863;-73
2022/05/28 09:03:16;;;;;;;11.90;11.10;;;;;;;17.00;100.00;102540.41;1838862;75;940861;-72
2022/05/28 09:05:51;;;;;;;12.30;11.37;;;;;;;16.86;100.00;102538.78;1838783;75;938904;-71
2022/05/28 09:11:35;;;;;;;14.60;13.40;;;;;;;16.98;100.00;102535.11;1890927;74;86496;-74
2022/05/28 09:17:25;;;;;;;13.40;12.50;;;;;;;17.39;100.00;102539.94;1898235;75;86151;-71
2022/05/28 09:23:03;;;;;;;11.80;11.03;;;;;;;17.89;100.00;102542.98;1975114;69;39665;-72
2022/05/28 09:28:51;;;;;;;12.37;11.67;;;;;;;17.50;100.00;102537.92;1852950;76;86324;-72
2022/05/28 09:31:30;;;;;;;11.83;11.13;;;;;;;17.46;100.00;102528.36;1807873;77;938790;-71
2022/05/28 09:34:20;;;;;;;12.15;11.55;;;;;;;17.82;100.00;102531.80;1784027;77;941026;-72
2022/05/28 09:40:04;;;;;;;9.67;9.10;;;;;;;18.03;100.00;102530.50;1982546;69;39706;-71
2022/05/28 09:42:45;;;;;;;9.63;9.13;;;;;;;18.04;100.00;102537.24;1922098;73;932638;-72
2022/05/28 09:48:28;;;;;;;9.93;9.37;;;;;;;17.76;100.00;102544.23;1934173;73;86578;-72
2022/05/28 09:50:58;;;;;;;15.63;15.03;;;;;;;17.92;100.00;102544.38;1856707;75;934708;-71
2022/05/28 09:56:38;;;;;;;16.40;15.70;;;;;;;18.51;100.00;102522.99;1892425;74;86373;-73
2022/05/28 10:02:27;;;;;;;9.17;8.60;;;;;;;18.86;100.00;102514.17;1917133;74;85619;-71
2022/05/28 10:05:00;;;;;;;9.48;8.88;;;;;;;18.42;100.00;102527.59;1856428;76;934753;-71
2022/05/28 10:10:40;;;;;;;87.03;45.73;;;;;;;17.82;100.00;102531.80;1882269;75;86107;-73
2022/05/28 10:16:21;;;;;;;10.20;9.53;;;;;;;18.09;100.00;102529.33;1894853;75;85669;-71
2022/05/28 10:18:57;;;;;;;8.90;8.40;;;;;;;18.22;100.00;102531.45;1848213;75;936732;-72
2022/05/28 10:21:34;;;;;;;9.77;9.37;;;;;;;18.09;100.00;102532.98;1772550;78;936816;-71
2022/05/28 10:24:08;;;;;;;9.18;8.68;;;;;;;17.50;100.00;102532.30;1792312;78;936819;-71
2022/05/28 10:29:49;;;;;;;10.33;9.50;;;;;;;17.61;100.00;102526.34;1906113;73;86375;-71
2022/05/28 10:32:25;;;;;;;9.40;8.87;;;;;;;17.49;100.00;102526.39;1859430;76;936103;-71
2022/05/28 10:35:03;;;;;;;10.38;9.65;;;;;;;17.60;100.00;102514.81;1831509;75;936591;-72
2022/05/28 10:37:34;;;;;;;9.90;9.30;;;;;;;17.88;100.00;102517.42;1841575;76;936887;-72
2022/05/28 10:40:13;;;;;;;9.50;9.00;;;;;;;18.05;100.00;102512.20;1797227;77;935921;-72
2022/05/28 10:42:44;;;;;;;9.83;9.13;;;;;;;18.06;100.00;102513.02;1768388;79;934800;-72
2022/05/28 10:45:17;;;;;;;9.83;9.25;;;;;;;17.88;100.00;102512.36;1810090;77;936680;-73
2022/05/28 10:48:31;;;;;;;9.05;8.55;;;;;;;18.06;100.00;102512.45;1790240;77;936683;-73
2022/05/28 10:51:11;;;;;;;8.83;8.33;;;;;;;18.10;100.00;102507.92;1789495;77;936600;-72
2022/05/28 10:57:03;;;;;;;9.53;9.00;;;;;;;18.08;100.00;102495.30;1988744;69;39661;-72
2022/05/28 10:59:44;;;;;;;10.70;10.10;;;;;;;17.91;100.00;102500.52;1926772;73;933005;-72
2022/05/28 11:02:47;;;;;;;9.53;9.10;;;;;;;17.93;100.00;102503.30;1925845;73;939742;-71
2022/05/28 11:05:23;;;;;;;9.90;9.30;;;;;;;18.19;100.00;102499.11;1820677;73;936659;-71
2022/05/28 11:07:59;;;;;;;10.90;10.23;;;;;;;18.37;100.00;102485.43;1907469;73;936556;-72
2022/05/28 11:14:31;;;;;;;10.00;9.40;;;;;;;18.48;100.00;102477.16;1894729;75;86707;-73
2022/05/28 11:20:23;;;;;;;11.07;10.20;;;;;;;18.53;100.00;102480.77;1894534;75;86370;-72
2022/05/28 11:26:14;;;;;;;8.93;8.43;;;;;;;18.82;100.00;102479.30;1976750;69;39550;-72
2022/05/28 11:29:09;;;;;;;9.50;8.90;;;;;;;19.02;100.00;102488.04;1928465;73;932373;-72
2022/05/28 11:34:51;;;;;;;8.77;8.20;;;;;;;18.61;100.00;102483.52;1843061;77;85677;-72
2022/05/28 11:37:25;;;;;;;8.40;7.90;;;;;;;18.32;100.00;102486.32;1800298;77;934702;-73
2022/05/28 11:43:07;;;;;;;9.33;8.73;;;;;;;18.03;100.00;102485.50;1987843;69;43289;-73
2022/05/28 11:54:47;;;;;;;10.33;9.83;;;;;;;18.46;100.00;102456.91;1866587;75;86362;-71
2022/05/28 11:57:23;;;;;;;9.77;9.10;;;;;;;18.75;100.00;102459.10;1816797;76;936713;-71
2022/05/28 11:59:53;;;;;;;10.65;10.05;;;;;;;18.69;100.00;102456.11;1821688;75;936895;-72
2022/05/28 12:02:27;;;;;;;9.53;9.03;;;;;;;19.14;100.00;102449.56;1839708;76;940083;-72
2022/05/28 12:04:57;;;;;;;9.50;9.00;;;;;;;18.82;100.00;102448.33;1821756;75;935883;-70
2022/05/28 12:10:43;;;;;;;9.03;8.53;;;;;;;18.55;100.00;102451.77;1903724;73;86643;-71
2022/05/28 12:13:15;;;;;;;9.20;8.67;;;;;;;18.33;100.00;102453.40;1845606;76;933509;-71
2022/05/28 12:15:45;;;;;;;10.30;9.60;;;;;;;18.28;100.00;102443.04;1834530;76;934933;-71
2022/05/28 12:18:24;;;;;;;9.70;9.07;;;;;;;18.64;100.00;102438.70;1834580;76;937956;-71
2022/05/28 12:20:58;;;;;;;10.55;9.95;;;;;;;18.77;100.00;102425.87;1825810;76;936562;-72
2022/05/28 12:23:35;;;;;;;10.00;9.40;;;;;;;19.17;100.00;102430.06;1836773;76;938864;-72
2022/05/28 12:26:26;;;;;;;10.20;9.60;;;;;;;19.27;100.00;102426.25;1822473;76;938709;-71
2022/05/28 12:28:51;;;;;;;9.57;9.07;;;;;;;19.28;100.00;102433.58;1819787;76;938961;-71
2022/05/28 12:31:28;;;;;;;9.63;9.13;;;;;;;19.15;100.00;102432.36;1839291;77;936984;-72
2022/05/28 12:34:00;;;;;;;10.20;9.70;;;;;;;19.01;100.00;102428.62;1824039;76;935589;-71
2022/05/28 12:36:37;;;;;;;10.30;9.70;;;;;;;18.99;100.00;102421.06;1838400;76;938824;-73
2022/05/28 12:42:31;;;;;;;10.20;9.73;;;;;;;19.44;100.00;102418.12;1909780;73;86710;-72
2022/05/28 12:45:13;;;;;;;9.73;9.23;;;;;;;19.43;100.00;102411.64;1785830;77;936976;-73
2022/05/28 12:47:44;;;;;;;9.63;9.13;;;;;;;19.55;100.00;102415.41;1819981;75;935360;-73
2022/05/28 12:53:25;;;;;;;10.17;9.67;;;;;;;19.03;100.00;102408.88;1935025;73;86414;-72
2022/05/28 12:56:03;;;;;;;9.03;8.50;;;;;;;19.19;100.00;102405.81;1853163;75;935754;-72
2022/05/28 12:58:36;;;;;;;8.97;8.57;;;;;;;19.45;100.00;102399.50;1867005;75;934622;-72
2022/05/28 13:01:09;;;;;;;9.80;9.30;;;;;;;19.85;100.00;102399.33;1855624;73;936701;-71
2022/05/28 13:06:51;;;;;;;10.03;9.60;;;;;;;19.62;100.00;102398.09;1850200;76;86433;-72
2022/05/28 13:12:32;;;;;;;10.80;10.30;;;;;;;19.37;100.00;102396.52;1884820;74;86221;-74
2022/05/28 13:15:23;;;;;;;10.13;9.68;;;;;;;19.04;100.00;102402.65;1793838;77;938054;-74
2022/05/28 13:18:26;;;;;;;10.55;9.75;;;;;;;19.41;100.00;102397.57;1842734;76;938344;-73
2022/05/28 13:25:09;;;;;;;10.40;9.87;;;;;;;19.20;100.00;102394.25;1894877;75;86366;-72
2022/05/28 13:27:55;;;;;;;10.10;9.70;;;;;;;19.16;100.00;102395.17;1855866;75;934717;-72
2022/05/28 13:30:30;;;;;;;9.67;9.30;;;;;;;19.04;100.00;102396.45;1856774;75;938812;-72
2022/05/28 13:33:04;;;;;;;9.68;9.13;;;;;;;18.61;100.00;102394.25;1839633;75;936542;-72
2022/05/28 13:35:46;;;;;;;11.00;10.30;;;;;;;18.67;100.00;102386.58;1797886;77;934694;-72
2022/05/28 13:41:29;;;;;;;10.40;9.87;;;;;;;19.46;100.00;102374.41;1929470;73;86315;-74
2022/05/28 13:44:05;;;;;;;10.55;9.65;;;;;;;19.70;100.00;102378.48;1854394;74;936684;-73
2022/05/28 13:46:35;;;;;;;9.50;9.10;;;;;;;19.55;100.00;102376.75;1868800;75;936893;-74
2022/05/28 13:49:08;;;;;;;9.95;9.38;;;;;;;19.24;100.00;102374.19;1824563;75;936594;-74
2022/05/28 13:51:40;;;;;;;10.20;9.60;;;;;;;19.07;100.00;102372.48;1805814;78;934517;-72
2022/05/28 13:54:12;;;;;;;10.30;9.70;;;;;;;19.04;100.00;102373.92;1823436;75;938045;-73
2022/05/28 13:56:43;;;;;;;10.00;9.50;;;;;;;18.96;100.00;102371.80;1839173;74;937730;-72